createdAt,value
2023-04-03T00:00:53.813Z,99199.75
2023-04-03T00:01:55.808Z,99199.56
2023-04-03T00:02:57.858Z,99204.63
2023-04-03T00:04:00.401Z,99199.81
2023-04-03T00:05:05.571Z,99198.28
2023-04-03T00:06:08.591Z,99199.34
2023-04-03T00:07:10.260Z,99200.28
2023-04-03T00:08:11.781Z,99193.50
2023-04-03T00:09:13.947Z,99189.22
2023-04-03T00:10:16.262Z,99194.16
2023-04-03T00:11:18.975Z,99197.06
2023-04-03T00:12:20.612Z,99197.38
2023-04-03T00:13:22.167Z,99197.03
2023-04-03T00:14:23.633Z,99196.72
2023-04-03T00:15:25.273Z,99200.91
2023-04-03T00:16:26.790Z,99198.56
2023-04-03T00:17:28.280Z,99199.47
2023-04-03T00:18:30.385Z,99195.13
2023-04-03T00:19:31.928Z,99198.81
2023-04-03T00:20:35.274Z,99200.84
2023-04-03T00:21:37.331Z,99202.84
2023-04-03T00:22:38.828Z,99202.97
2023-04-03T00:23:40.587Z,99196.78
2023-04-03T00:24:42.522Z,99197.41
2023-04-03T00:25:43.999Z,99200.97
2023-04-03T00:26:46.109Z,99203.16
2023-04-03T00:27:47.692Z,99200.84
2023-04-03T00:28:49.175Z,99202.03
2023-04-03T00:29:50.638Z,99197.28
2023-04-03T00:30:52.842Z,99207.16
2023-04-03T00:31:54.520Z,99203.16
2023-04-03T00:32:56.057Z,99195.88
2023-04-03T00:33:57.553Z,99197.28
2023-04-03T00:34:59.062Z,99204.94
2023-04-03T00:36:00.816Z,99199.84
2023-04-03T00:37:02.875Z,99191.69
2023-04-03T00:38:04.345Z,99197.88
2023-04-03T00:39:07.108Z,99197.69
2023-04-03T00:40:12.955Z,99191.22
2023-04-03T00:41:16.856Z,99190.91
2023-04-03T00:42:18.603Z,99193.53
2023-04-03T00:43:25.317Z,99188.00
2023-04-03T00:44:29.843Z,99193.84
2023-04-03T00:45:40.300Z,99194.78
2023-04-03T00:46:41.892Z,99195.56
2023-04-03T00:47:43.533Z,99197.69
2023-04-03T00:48:46.987Z,99197.88
2023-04-03T00:49:48.857Z,99198.16
2023-04-03T00:50:51.524Z,99194.16
2023-04-03T00:51:53.650Z,99195.50
2023-04-03T00:52:58.577Z,99200.66
2023-04-03T00:54:03.635Z,99203.81
2023-04-03T00:55:08.641Z,99203.53
2023-04-03T00:56:13.357Z,99205.75
2023-04-03T00:57:18.400Z,99204.06
2023-04-03T00:58:21.907Z,99193.97
2023-04-03T00:59:28.332Z,99195.81
2023-04-03T01:00:30.234Z,99200.50
2023-04-03T01:01:32.920Z,99199.84
2023-04-03T01:02:34.484Z,99198.94
2023-04-03T01:03:36.241Z,99199.25
2023-04-03T01:04:41.553Z,99200.50
2023-04-03T01:05:43.114Z,99202.06
2023-04-03T01:06:44.668Z,99195.28
2023-04-03T01:07:47.642Z,99199.13
2023-04-03T01:08:51.021Z,99194.00
2023-04-03T01:09:56.985Z,99198.78
2023-04-03T01:10:58.516Z,99204.16
2023-04-03T01:12:22.736Z,99194.59
2023-04-03T01:13:28.006Z,99202.16
2023-04-03T01:14:29.463Z,99200.31
2023-04-03T01:15:36.490Z,99197.97
2023-04-03T01:16:37.996Z,99198.28
2023-04-03T01:17:51.837Z,99201.22
2023-04-03T01:18:53.422Z,99199.59
2023-04-03T01:20:26.327Z,99192.84
2023-04-03T01:22:05.568Z,99208.88
2023-04-03T01:23:09.750Z,99198.34
2023-04-03T01:24:30.261Z,99196.22
2023-04-03T01:25:31.699Z,99198.41
2023-04-03T01:26:33.899Z,99196.56
2023-04-03T01:27:35.393Z,99205.41
2023-04-03T01:28:37.255Z,99199.72
2023-04-03T01:29:39.137Z,99201.56
2023-04-03T01:31:01.184Z,99195.84
2023-04-03T01:32:04.157Z,99195.53
2023-04-03T01:33:05.641Z,99204.94
2023-04-03T01:34:07.438Z,99201.25
2023-04-03T01:35:11.362Z,99200.06
2023-04-03T01:36:18.142Z,99205.72
2023-04-03T01:37:19.712Z,99200.94
2023-04-03T01:38:22.141Z,99201.13
2023-04-03T01:39:24.001Z,99207.72
2023-04-03T01:40:26.462Z,99205.19
2023-04-03T01:41:29.391Z,99204.50
2023-04-03T01:42:30.827Z,99205.34
2023-04-03T01:43:32.259Z,99204.44
2023-04-03T01:44:33.741Z,99207.94
2023-04-03T01:45:35.376Z,99205.25
2023-04-03T01:46:38.966Z,99203.53
2023-04-03T01:47:40.520Z,99204.25
2023-04-03T01:48:42.143Z,99207.06
2023-04-03T01:49:44.278Z,99206.81
2023-04-03T01:50:45.687Z,99212.72
2023-04-03T01:51:47.172Z,99210.28
2023-04-03T01:52:48.637Z,99203.59
2023-04-03T01:53:50.588Z,99206.72
2023-04-03T01:54:52.162Z,99210.56
2023-04-03T01:55:53.641Z,99205.84
2023-04-03T01:56:55.187Z,99201.41
2023-04-03T01:57:56.618Z,99208.38
2023-04-03T01:58:58.760Z,99205.38
2023-04-03T02:00:00.333Z,99204.53
2023-04-03T02:01:02.560Z,99202.31
2023-04-03T02:02:04.478Z,99198.72
2023-04-03T02:03:06.365Z,99194.28
2023-04-03T02:04:07.885Z,99199.81
2023-04-03T02:05:09.856Z,99198.25
2023-04-03T02:06:12.787Z,99202.50
2023-04-03T02:07:14.594Z,99195.63
2023-04-03T02:08:18.857Z,99200.25
2023-04-03T02:09:20.836Z,99200.63
2023-04-03T02:10:22.256Z,99200.63
2023-04-03T02:11:24.165Z,99193.06
2023-04-03T02:12:25.632Z,99199.88
2023-04-03T02:13:27.077Z,99188.63
2023-04-03T02:14:28.524Z,99202.00
2023-04-03T02:15:30.571Z,99191.16
2023-04-03T02:16:32.606Z,99200.59
2023-04-03T02:17:34.132Z,99191.38
2023-04-03T02:18:35.670Z,99201.44
2023-04-03T02:19:37.217Z,99199.69
2023-04-03T02:20:38.979Z,99201.53
2023-04-03T02:21:41.408Z,99204.06
2023-04-03T02:22:42.909Z,99204.25
2023-04-03T02:23:44.484Z,99206.69
2023-04-03T02:24:46.444Z,99203.59
2023-04-03T02:25:50.086Z,99202.13
2023-04-03T02:26:51.757Z,99200.13
2023-04-03T02:27:53.521Z,99209.97
2023-04-03T02:28:55.026Z,99200.50
2023-04-03T02:29:56.705Z,99198.38
2023-04-03T02:30:58.187Z,99197.59
2023-04-03T02:31:59.653Z,99204.56
2023-04-03T02:33:01.341Z,99205.50
2023-04-03T02:34:03.057Z,99200.69
2023-04-03T02:35:05.178Z,99201.38
2023-04-03T02:36:08.353Z,99199.72
2023-04-03T02:37:09.881Z,99200.59
2023-04-03T02:38:11.530Z,99199.72
2023-04-03T02:39:13.236Z,99198.25
2023-04-03T02:40:14.814Z,99200.47
2023-04-03T02:41:16.893Z,99196.53
2023-04-03T02:42:18.340Z,99197.88
2023-04-03T02:43:19.850Z,99201.66
2023-04-03T02:44:21.346Z,99201.34
2023-04-03T02:45:22.805Z,99201.66
2023-04-03T02:46:24.341Z,99200.28
2023-04-03T02:47:26.226Z,99201.25
2023-04-03T02:48:28.588Z,99200.03
2023-04-03T02:49:30.008Z,99203.88
2023-04-03T02:50:31.631Z,99201.56
2023-04-03T02:51:33.604Z,99199.91
2023-04-03T02:52:35.574Z,99199.34
2023-04-03T02:53:36.985Z,99208.22
2023-04-03T02:54:38.397Z,99204.47
2023-04-03T02:55:39.825Z,99203.38
2023-04-03T02:56:41.281Z,99203.19
2023-04-03T02:57:42.807Z,99202.31
2023-04-03T02:58:44.738Z,99202.97
2023-04-03T02:59:46.310Z,99196.97
2023-04-03T03:00:47.723Z,99202.88
2023-04-03T03:01:49.348Z,99203.75
2023-04-03T03:02:51.315Z,99196.00
2023-04-03T03:03:52.797Z,99209.09
2023-04-03T03:04:54.303Z,99197.16
2023-04-03T03:06:08.045Z,99203.16
2023-04-03T03:07:09.521Z,99197.84
2023-04-03T03:08:11.162Z,99204.03
2023-04-03T03:09:14.053Z,99202.38
2023-04-03T03:10:15.811Z,99202.94
2023-04-03T03:11:17.235Z,99202.19
2023-04-03T03:12:23.016Z,99204.03
2023-04-03T03:13:25.651Z,99204.22
2023-04-03T03:14:27.143Z,99203.25
2023-04-03T03:15:28.676Z,99201.09
2023-04-03T03:16:30.353Z,99203.81
2023-04-03T03:17:31.925Z,99199.88
2023-04-03T03:18:35.809Z,99203.53
2023-04-03T03:19:37.359Z,99200.38
2023-04-03T03:20:38.986Z,99197.38
2023-04-03T03:21:40.468Z,99195.41
2023-04-03T03:22:42.255Z,99195.03
2023-04-03T03:23:43.693Z,99198.28
2023-04-03T03:24:45.297Z,99199.09
2023-04-03T03:25:46.886Z,99204.81
2023-04-03T03:26:48.416Z,99201.81
2023-04-03T03:27:49.879Z,99204.59
2023-04-03T03:28:51.357Z,99202.19
2023-04-03T03:29:52.844Z,99208.38
2023-04-03T03:30:54.475Z,99201.09
2023-04-03T03:31:56.168Z,99206.81
2023-04-03T03:32:57.700Z,99209.44
2023-04-03T03:33:59.216Z,99205.44
2023-04-03T03:35:00.789Z,99209.44
2023-04-03T03:36:02.348Z,99204.78
2023-04-03T03:37:03.872Z,99201.53
2023-04-03T03:38:05.287Z,99205.22
2023-04-03T03:39:06.702Z,99204.72
2023-04-03T03:40:08.886Z,99202.69
2023-04-03T03:41:10.553Z,99200.25
2023-04-03T03:42:12.320Z,99203.53
2023-04-03T03:43:13.766Z,99201.88
2023-04-03T03:44:16.274Z,99206.16
2023-04-03T03:45:17.789Z,99209.84
2023-04-03T03:46:19.330Z,99204.91
2023-04-03T03:47:21.201Z,99208.47
2023-04-03T03:48:23.399Z,99203.13
2023-04-03T03:49:24.834Z,99200.84
2023-04-03T03:50:26.291Z,99207.78
2023-04-03T03:51:27.741Z,99202.84
2023-04-03T03:52:29.350Z,99207.59
2023-04-03T03:53:31.673Z,99213.03
2023-04-03T03:54:33.123Z,99202.88
2023-04-03T03:55:34.932Z,99205.59
2023-04-03T03:56:36.561Z,99206.84
2023-04-03T03:57:38.000Z,99201.53
2023-04-03T03:58:39.811Z,99200.97
2023-04-03T03:59:41.973Z,99204.25
2023-04-03T04:00:43.431Z,99202.00
2023-04-03T04:01:44.891Z,99202.75
2023-04-03T04:02:47.330Z,99208.97
2023-04-03T04:03:49.163Z,99201.66
2023-04-03T04:04:50.677Z,99207.06
2023-04-03T04:05:52.398Z,99210.72
2023-04-03T04:06:53.888Z,99209.28
2023-04-03T04:07:55.759Z,99206.56
2023-04-03T04:08:57.189Z,99201.84
2023-04-03T04:09:58.964Z,99199.81
2023-04-03T04:11:00.610Z,99204.38
2023-04-03T04:12:02.074Z,99209.28
2023-04-03T04:13:03.496Z,99210.47
2023-04-03T04:14:05.030Z,99209.97
2023-04-03T04:15:07.151Z,99204.38
2023-04-03T04:16:08.770Z,99206.50
2023-04-03T04:17:10.438Z,99208.22
2023-04-03T04:18:12.524Z,99209.59
2023-04-03T04:19:14.969Z,99209.28
2023-04-03T04:20:16.550Z,99214.06
2023-04-03T04:21:18.048Z,99210.94
2023-04-03T04:22:19.511Z,99213.66
2023-04-03T04:23:21.061Z,99215.09
2023-04-03T04:24:23.791Z,99209.00
2023-04-03T04:25:25.284Z,99215.59
2023-04-03T04:26:27.031Z,99209.03
2023-04-03T04:27:28.547Z,99210.94
2023-04-03T04:28:30.354Z,99213.75
2023-04-03T04:29:36.543Z,99207.97
2023-04-03T04:30:38.114Z,99203.00
2023-04-03T04:31:39.551Z,99208.84
2023-04-03T04:32:41.122Z,99210.47
2023-04-03T04:33:42.567Z,99213.09
2023-04-03T04:34:44.040Z,99213.09
2023-04-03T04:35:48.104Z,99211.66
2023-04-03T04:36:49.856Z,99215.13
2023-04-03T04:37:52.129Z,99207.66
2023-04-03T04:38:56.669Z,99211.94
2023-04-03T04:39:58.121Z,99214.38
2023-04-03T04:40:59.546Z,99210.38
2023-04-03T04:42:01.001Z,99209.59
2023-04-03T04:43:02.578Z,99210.69
2023-04-03T04:44:04.092Z,99204.59
2023-04-03T04:45:06.084Z,99211.56
2023-04-03T04:46:10.414Z,99208.06
2023-04-03T04:47:11.987Z,99210.69
2023-04-03T04:48:13.459Z,99197.13
2023-04-03T04:49:14.900Z,99205.16
2023-04-03T04:50:17.269Z,99209.03
2023-04-03T04:51:19.098Z,99208.75
2023-04-03T04:52:21.094Z,99200.44
2023-04-03T04:53:22.909Z,99208.94
2023-04-03T04:54:24.470Z,99207.56
2023-04-03T04:55:25.937Z,99209.50
2023-04-03T04:56:27.700Z,99211.44
2023-04-03T04:57:29.192Z,99210.19
2023-04-03T04:58:30.973Z,99212.53
2023-04-03T04:59:32.663Z,99216.00
2023-04-03T05:00:34.125Z,99208.63
2023-04-03T05:01:36.799Z,99214.44
2023-04-03T05:02:38.369Z,99209.78
2023-04-03T05:03:39.950Z,99213.75
2023-04-03T05:04:41.419Z,99216.56
2023-04-03T05:05:42.893Z,99215.69
2023-04-03T05:06:44.329Z,99224.72
2023-04-03T05:07:45.881Z,99224.72
2023-04-03T05:08:47.368Z,99225.94
2023-04-03T05:09:49.078Z,99231.00
2023-04-03T05:10:53.169Z,99232.22
2023-04-03T05:11:57.238Z,99233.41
2023-04-03T05:12:59.263Z,99230.00
2023-04-03T05:14:00.878Z,99226.00
2023-04-03T05:15:02.330Z,99225.06
2023-04-03T05:16:04.066Z,99222.84
2023-04-03T05:17:05.608Z,99231.72
2023-04-03T05:18:07.298Z,99233.53
2023-04-03T05:19:09.001Z,99225.03
2023-04-03T05:20:11.091Z,99232.56
2023-04-03T05:21:13.028Z,99235.84
2023-04-03T05:22:14.496Z,99237.91
2023-04-03T05:23:16.097Z,99232.22
2023-04-03T05:24:17.878Z,99237.25
2023-04-03T05:25:19.425Z,99233.09
2023-04-03T05:26:22.070Z,99238.81
2023-04-03T05:27:25.130Z,99238.31
2023-04-03T05:28:27.015Z,99243.63
2023-04-03T05:29:28.592Z,99237.25
2023-04-03T05:30:30.193Z,99240.81
2023-04-03T05:31:31.672Z,99241.22
2023-04-03T05:32:33.869Z,99236.38
2023-04-03T05:33:35.712Z,99242.28
2023-04-03T05:34:37.239Z,99245.69
2023-04-03T05:35:42.710Z,99234.94
2023-04-03T05:36:44.557Z,99241.22
2023-04-03T05:37:46.164Z,99242.47
2023-04-03T05:38:48.044Z,99236.00
2023-04-03T05:39:49.589Z,99245.19
2023-04-03T05:40:51.183Z,99240.47
2023-04-03T05:41:52.677Z,99243.84
2023-04-03T05:42:54.602Z,99244.44
2023-04-03T05:43:56.029Z,99249.09
2023-04-03T05:44:57.573Z,99246.75
2023-04-03T05:45:59.338Z,99254.50
2023-04-03T05:47:00.917Z,99255.75
2023-04-03T05:48:02.792Z,99248.91
2023-04-03T05:49:04.352Z,99252.38
2023-04-03T05:50:06.707Z,99250.31
2023-04-03T05:51:14.455Z,99259.13
2023-04-03T05:52:22.781Z,99260.41
2023-04-03T05:53:28.633Z,99259.25
2023-04-03T05:54:31.329Z,99257.91
2023-04-03T05:55:33.205Z,99261.00
2023-04-03T05:56:35.071Z,99264.78
2023-04-03T05:57:36.894Z,99260.78
2023-04-03T05:58:38.589Z,99265.03
2023-04-03T05:59:39.989Z,99265.34
2023-04-03T06:00:41.460Z,99262.63
2023-04-03T06:01:43.207Z,99271.75
2023-04-03T06:02:44.830Z,99271.03
2023-04-03T06:03:46.570Z,99268.25
2023-04-03T06:04:50.136Z,99265.56
2023-04-03T06:05:51.885Z,99269.41
2023-04-03T06:06:55.708Z,99273.00
2023-04-03T06:07:58.142Z,99272.31
2023-04-03T06:08:59.939Z,99267.41
2023-04-03T06:10:08.007Z,99270.00
2023-04-03T06:11:09.787Z,99272.31
2023-04-03T06:12:12.281Z,99279.38
2023-04-03T06:13:13.753Z,99276.19
2023-04-03T06:14:15.590Z,99277.66
2023-04-03T06:15:18.067Z,99273.28
2023-04-03T06:16:20.469Z,99278.31
2023-04-03T06:17:22.042Z,99278.69
2023-04-03T06:18:23.573Z,99277.06
2023-04-03T06:19:25.056Z,99272.78
2023-04-03T06:20:27.028Z,99272.31
2023-04-03T06:21:31.612Z,99282.06
2023-04-03T06:22:33.064Z,99280.72
2023-04-03T06:23:34.940Z,99277.66
2023-04-03T06:24:36.972Z,99279.97
2023-04-03T06:25:38.526Z,99279.34
2023-04-03T06:26:40.007Z,99283.91
2023-04-03T06:27:41.578Z,99278.78
2023-04-03T06:28:45.786Z,99283.66
2023-04-03T06:29:47.331Z,99287.69
2023-04-03T06:30:48.796Z,99284.88
2023-04-03T06:31:51.494Z,99286.31
2023-04-03T06:32:53.314Z,99285.75
2023-04-03T06:33:54.741Z,99289.91
2023-04-03T06:34:56.520Z,99293.38
2023-04-03T06:36:01.472Z,99295.03
2023-04-03T06:37:03.204Z,99295.34
2023-04-03T06:38:10.310Z,99297.28
2023-04-03T06:39:18.044Z,99303.00
2023-04-03T06:40:23.612Z,99297.09
2023-04-03T06:41:26.643Z,99300.38
2023-04-03T06:42:28.102Z,99299.59
2023-04-03T06:43:29.590Z,99294.38
2023-04-03T06:44:31.147Z,99292.91
2023-04-03T06:45:32.662Z,99295.88
2023-04-03T06:46:34.216Z,99296.78
2023-04-03T06:47:35.829Z,99298.50
2023-04-03T06:48:37.476Z,99289.31
2023-04-03T06:49:39.015Z,99295.66
2023-04-03T06:50:40.943Z,99300.44
2023-04-03T06:51:42.381Z,99300.34
2023-04-03T06:52:43.873Z,99300.06
2023-04-03T06:53:46.684Z,99300.84
2023-04-03T06:54:48.416Z,99293.34
2023-04-03T06:55:49.905Z,99304.47
2023-04-03T06:56:52.082Z,99297.50
2023-04-03T06:57:53.584Z,99306.31
2023-04-03T06:58:58.367Z,99304.91
2023-04-03T06:59:59.823Z,99300.91
2023-04-03T07:01:01.493Z,99314.06
2023-04-03T07:02:03.368Z,99315.22
2023-04-03T07:03:04.875Z,99318.19
2023-04-03T07:04:06.823Z,99316.25
2023-04-03T07:05:09.147Z,99321.19
2023-04-03T07:06:13.540Z,99316.72
2023-04-03T07:07:15.930Z,99322.16
2023-04-03T07:08:17.554Z,99319.34
2023-04-03T07:09:19.452Z,99326.72
2023-04-03T07:10:21.802Z,99319.34
2023-04-03T07:11:23.502Z,99321.63
2023-04-03T07:12:25.129Z,99321.22
2023-04-03T07:13:27.730Z,99327.63
2023-04-03T07:14:29.204Z,99331.78
2023-04-03T07:15:31.472Z,99325.53
2023-04-03T07:16:33.179Z,99329.59
2023-04-03T07:17:34.700Z,99329.97
2023-04-03T07:18:36.607Z,99327.47
2023-04-03T07:19:38.071Z,99332.59
2023-04-03T07:20:40.071Z,99338.88
2023-04-03T07:21:42.896Z,99333.03
2023-04-03T07:22:44.375Z,99336.31
2023-04-03T07:23:46.222Z,99337.78
2023-04-03T07:24:47.666Z,99339.56
2023-04-03T07:25:50.584Z,99336.22
2023-04-03T07:26:53.505Z,99341.66
2023-04-03T07:27:55.544Z,99341.22
2023-04-03T07:28:57.179Z,99343.59
2023-04-03T07:29:58.992Z,99338.22
2023-04-03T07:31:09.723Z,99341.84
2023-04-03T07:32:11.974Z,99338.13
2023-04-03T07:33:14.970Z,99335.81
2023-04-03T07:34:16.464Z,99344.00
2023-04-03T07:35:18.744Z,99334.41
2023-04-03T07:36:22.886Z,99345.50
2023-04-03T07:37:24.401Z,99336.59
2023-04-03T07:38:26.723Z,99349.41
2023-04-03T07:39:28.999Z,99337.69
2023-04-03T07:40:31.052Z,99336.00
2023-04-03T07:41:32.537Z,99342.91
2023-04-03T07:42:33.974Z,99349.97
2023-04-03T07:43:35.826Z,99351.16
2023-04-03T07:44:37.595Z,99345.97
2023-04-03T07:45:39.524Z,99342.91
2023-04-03T07:46:41.859Z,99338.91
2023-04-03T07:47:43.351Z,99351.91
2023-04-03T07:48:44.999Z,99355.31
2023-04-03T07:49:46.513Z,99355.72
2023-04-03T07:50:48.286Z,99348.31
2023-04-03T07:51:50.068Z,99354.63
2023-04-03T07:52:51.911Z,99350.16
2023-04-03T07:53:53.515Z,99348.75
2023-04-03T07:54:55.260Z,99348.31
2023-04-03T07:56:00.357Z,99349.41
2023-04-03T07:57:02.351Z,99356.84
2023-04-03T07:58:04.298Z,99351.44
2023-04-03T07:59:06.174Z,99352.53
2023-04-03T08:00:08.658Z,99354.84
2023-04-03T08:01:10.190Z,99359.50
2023-04-03T08:02:12.640Z,99355.16
2023-04-03T08:03:15.129Z,99355.47
2023-04-03T08:04:16.889Z,99356.13
2023-04-03T08:05:22.948Z,99354.09
2023-04-03T08:06:37.439Z,99355.50
2023-04-03T08:07:44.106Z,99358.56
2023-04-03T08:08:45.602Z,99361.19
2023-04-03T08:09:47.387Z,99358.25
2023-04-03T08:10:51.235Z,99354.13
2023-04-03T08:11:54.452Z,99354.75
2023-04-03T08:12:58.701Z,99354.13
2023-04-03T08:14:00.297Z,99352.94
2023-04-03T08:15:02.580Z,99356.34
2023-04-03T08:16:17.602Z,99360.97
2023-04-03T08:17:19.242Z,99364.53
2023-04-03T08:18:22.798Z,99359.22
2023-04-03T08:19:26.447Z,99357.06
2023-04-03T08:20:29.238Z,99361.38
2023-04-03T08:21:30.845Z,99364.53
2023-04-03T08:22:32.269Z,99361.81
2023-04-03T08:23:33.708Z,99360.38
2023-04-03T08:24:36.346Z,99374.06
2023-04-03T08:25:41.944Z,99374.00
2023-04-03T08:26:43.382Z,99370.16
2023-04-03T08:27:45.878Z,99364.69
2023-04-03T08:28:47.355Z,99370.06
2023-04-03T08:29:48.783Z,99370.97
2023-04-03T08:30:50.382Z,99370.38
2023-04-03T08:31:52.071Z,99375.88
2023-04-03T08:32:53.631Z,99377.69
2023-04-03T08:33:55.632Z,99380.22
2023-04-03T08:34:57.261Z,99376.41
2023-04-03T08:35:58.771Z,99376.41
2023-04-03T08:37:00.533Z,99377.53
2023-04-03T08:38:01.975Z,99377.50
2023-04-03T08:39:04.081Z,99381.56
2023-04-03T08:40:07.581Z,99374.81
2023-04-03T08:41:43.599Z,99379.13
2023-04-03T08:42:45.072Z,99369.03
2023-04-03T08:44:17.344Z,99377.34
2023-04-03T08:45:29.586Z,99383.28
2023-04-03T08:46:46.794Z,99388.31
2023-04-03T08:48:01.603Z,99379.78
2023-04-03T08:49:04.026Z,99377.75
2023-04-03T08:50:12.269Z,99386.50
2023-04-03T08:51:17.120Z,99382.47
2023-04-03T08:52:24.807Z,99380.75
2023-04-03T08:53:32.122Z,99381.81
2023-04-03T08:54:37.253Z,99385.69
2023-04-03T08:55:43.671Z,99379.38
2023-04-03T08:56:45.114Z,99382.22
2023-04-03T08:57:49.925Z,99378.41
2023-04-03T08:59:00.931Z,99378.28
2023-04-03T09:00:15.860Z,99377.47
2023-04-03T09:01:22.300Z,99374.13
2023-04-03T09:02:35.076Z,99379.69
2023-04-03T09:03:40.867Z,99384.53
2023-04-03T09:04:42.354Z,99388.16
2023-04-03T09:05:49.855Z,99386.28
2023-04-03T09:06:56.696Z,99378.09
2023-04-03T09:08:08.600Z,99384.16
2023-04-03T09:09:34.298Z,99393.28
2023-04-03T09:10:39.956Z,99383.88
2023-04-03T09:11:52.314Z,99389.13
2023-04-03T09:13:17.288Z,99390.81
2023-04-03T09:14:28.569Z,99384.31
2023-04-03T09:15:38.526Z,99386.78
2023-04-03T09:17:04.247Z,99384.78
2023-04-03T09:18:29.828Z,99392.94
2023-04-03T09:19:47.747Z,99391.56
2023-04-03T09:21:07.007Z,99388.47
2023-04-03T09:22:19.848Z,99389.53
2023-04-03T09:23:39.585Z,99389.09
2023-04-03T09:24:42.227Z,99383.53
2023-04-03T09:25:44.869Z,99389.84
2023-04-03T09:27:07.484Z,99389.53
2023-04-03T09:28:11.184Z,99388.44
2023-04-03T09:29:19.680Z,99387.03
2023-04-03T09:30:24.678Z,99389.94
2023-04-03T09:31:31.883Z,99395.03
2023-04-03T09:32:36.076Z,99384.84
2023-04-03T09:33:38.073Z,99387.66
2023-04-03T09:34:43.158Z,99387.00
2023-04-03T09:35:48.470Z,99384.91
2023-04-03T09:36:52.687Z,99389.09
2023-04-03T09:38:00.826Z,99376.88
2023-04-03T09:39:18.300Z,99383.81
2023-04-03T09:40:25.804Z,99380.28
2023-04-03T09:41:27.405Z,99384.28
2023-04-03T09:42:32.152Z,99378.88
2023-04-03T09:43:37.857Z,99379.34
2023-04-03T09:44:40.087Z,99377.94
2023-04-03T09:45:41.616Z,99383.81
2023-04-03T09:46:43.771Z,99376.88
2023-04-03T09:47:45.908Z,99378.31
2023-04-03T09:49:08.245Z,99378.16
2023-04-03T09:50:16.791Z,99378.44
2023-04-03T09:51:18.252Z,99374.59
2023-04-03T09:52:29.972Z,99381.22
2023-04-03T09:53:40.180Z,99374.28
2023-04-03T09:54:42.151Z,99379.22
2023-04-03T09:55:46.509Z,99371.97
2023-04-03T09:56:57.727Z,99373.66
2023-04-03T09:58:02.195Z,99374.75
2023-04-03T09:59:03.885Z,99377.66
2023-04-03T10:00:06.685Z,99380.56
2023-04-03T10:01:24.160Z,99373.31
2023-04-03T10:02:38.705Z,99387.69
2023-04-03T10:03:47.456Z,99373.63
2023-04-03T10:05:02.414Z,99378.28
2023-04-03T10:06:24.978Z,99375.78
2023-04-03T10:07:36.162Z,99374.25
2023-04-03T10:08:37.742Z,99377.03
2023-04-03T10:09:42.220Z,99376.44
2023-04-03T10:10:47.945Z,99381.81
2023-04-03T10:12:15.435Z,99381.06
2023-04-03T10:13:24.508Z,99378.13
2023-04-03T10:14:27.477Z,99374.72
2023-04-03T10:15:32.144Z,99369.63
2023-04-03T10:16:40.284Z,99373.50
2023-04-03T10:17:57.522Z,99381.09
2023-04-03T10:19:27.160Z,99360.22
2023-04-03T10:20:38.697Z,99364.38
2023-04-03T10:21:56.239Z,99366.25
2023-04-03T10:23:23.259Z,99364.06
2023-04-03T10:24:37.299Z,99363.28
2023-04-03T10:25:56.913Z,99366.22
2023-04-03T10:27:18.592Z,99362.81
2023-04-03T10:28:35.442Z,99362.03
2023-04-03T10:29:42.579Z,99358.78
2023-04-03T10:30:46.826Z,99360.50
2023-04-03T10:32:13.833Z,99356.44
2023-04-03T10:33:30.031Z,99362.94
2023-04-03T10:34:42.204Z,99357.81
2023-04-03T10:36:24.291Z,99361.63
2023-04-03T10:37:31.253Z,99363.13
2023-04-03T10:38:57.609Z,99364.78
2023-04-03T10:40:23.493Z,99358.13
2023-04-03T10:41:43.722Z,99365.53
2023-04-03T10:43:05.579Z,99356.66
2023-04-03T10:44:21.282Z,99352.16
2023-04-03T10:45:44.358Z,99357.00
2023-04-03T10:46:50.067Z,99361.31
2023-04-03T10:48:10.340Z,99347.56
2023-04-03T10:49:28.465Z,99352.63
2023-04-03T10:50:42.723Z,99354.56
2023-04-03T10:52:02.061Z,99352.31
2023-04-03T10:53:22.678Z,99350.81
2023-04-03T10:54:38.128Z,99354.44
2023-04-03T10:56:14.941Z,99357.09
2023-04-03T10:57:16.733Z,99351.06
2023-04-03T10:58:30.700Z,99349.38
2023-04-03T10:59:36.417Z,99355.88
2023-04-03T11:00:46.160Z,99348.00
2023-04-03T11:01:54.356Z,99345.25
2023-04-03T11:03:01.805Z,99341.69
2023-04-03T11:04:07.284Z,99343.56
2023-04-03T11:05:35.320Z,99343.56
2023-04-03T11:06:52.710Z,99343.41
2023-04-03T11:07:56.960Z,99344.34
2023-04-03T11:09:04.451Z,99338.78
2023-04-03T11:10:47.734Z,99338.78
2023-04-03T11:11:51.068Z,99328.38
2023-04-03T11:13:18.103Z,99325.69
2023-04-03T11:14:30.281Z,99335.78
2023-04-03T11:15:34.308Z,99328.19
2023-04-03T11:16:50.887Z,99333.44
2023-04-03T11:18:09.151Z,99333.75
2023-04-03T11:19:35.304Z,99323.41
2023-04-03T11:20:38.898Z,99323.88
2023-04-03T11:21:49.992Z,99317.38
2023-04-03T11:23:02.281Z,99320.28
2023-04-03T11:24:13.508Z,99314.16
2023-04-03T11:25:22.703Z,99323.06
2023-04-03T11:26:26.438Z,99324.00
2023-04-03T11:27:43.259Z,99321.94
2023-04-03T11:28:45.437Z,99315.28
2023-04-03T11:29:48.496Z,99322.41
2023-04-03T11:30:58.231Z,99314.63
2023-04-03T11:32:03.354Z,99317.56
2023-04-03T11:33:48.171Z,99306.25
2023-04-03T11:34:55.573Z,99308.56
2023-04-03T11:36:09.685Z,99303.63
2023-04-03T11:37:26.078Z,99305.06
2023-04-03T11:38:37.263Z,99303.44
2023-04-03T11:39:41.087Z,99309.91
2023-04-03T11:40:45.279Z,99311.34
2023-04-03T11:41:47.370Z,99307.22
2023-04-03T11:43:01.022Z,99304.41
2023-04-03T11:44:27.079Z,99311.19
2023-04-03T11:45:38.359Z,99299.44
2023-04-03T11:46:58.170Z,99301.66
2023-04-03T11:48:20.812Z,99307.94
2023-04-03T11:50:04.146Z,99310.69
2023-04-03T11:51:17.240Z,99305.25
2023-04-03T11:52:43.784Z,99309.13
2023-04-03T11:53:46.602Z,99311.25
2023-04-03T11:54:49.663Z,99302.53
2023-04-03T11:55:51.140Z,99300.63
2023-04-03T11:56:52.635Z,99301.97
2023-04-03T11:58:00.211Z,99295.75
2023-04-03T11:59:19.216Z,99301.28
2023-04-03T12:00:48.581Z,99303.88
2023-04-03T12:01:53.950Z,99300.44
2023-04-03T12:02:55.779Z,99309.72
2023-04-03T12:04:05.750Z,99296.97
2023-04-03T12:05:28.626Z,99289.97
2023-04-03T12:06:36.982Z,99293.66
2023-04-03T12:07:38.682Z,99288.97
2023-04-03T12:08:40.058Z,99300.13
2023-04-03T12:09:41.753Z,99297.00
2023-04-03T12:10:43.301Z,99295.75
2023-04-03T12:11:44.859Z,99294.78
2023-04-03T12:12:58.526Z,99300.25
2023-04-03T12:13:59.923Z,99299.16
2023-04-03T12:15:25.171Z,99292.63
2023-04-03T12:16:38.817Z,99283.56
2023-04-03T12:17:41.240Z,99279.72
2023-04-03T12:18:45.871Z,99279.41
2023-04-03T12:19:48.243Z,99290.16
2023-04-03T12:20:49.655Z,99280.47
2023-04-03T12:21:59.189Z,99280.72
2023-04-03T12:23:25.710Z,99282.84
2023-04-03T12:24:30.489Z,99280.22
2023-04-03T12:25:52.070Z,99284.31
2023-04-03T12:27:18.965Z,99286.25
2023-04-03T12:28:20.694Z,99277.84
2023-04-03T12:29:26.479Z,99279.78
2023-04-03T12:30:32.085Z,99276.38
2023-04-03T12:31:43.697Z,99276.41
2023-04-03T12:33:15.658Z,99278.44
2023-04-03T12:34:40.398Z,99274.69
2023-04-03T12:36:04.590Z,99274.41
2023-04-03T12:37:43.351Z,99272.72
2023-04-03T12:39:01.625Z,99270.09
2023-04-03T12:40:10.329Z,99263.31
2023-04-03T12:41:37.240Z,99266.03
2023-04-03T12:43:05.736Z,99278.91
2023-04-03T12:44:38.327Z,99277.63
2023-04-03T12:45:50.614Z,99285.84
2023-04-03T12:46:53.646Z,99279.38
2023-04-03T12:47:57.304Z,99271.13
2023-04-03T12:48:59.634Z,99270.44